sensor_id;sensor_type;location;lat;lon;timestamp;pressure;altitude;pressure_sealevel;temperature;humidity
58662;BME280;44432;49.786;22.760;2022-07-23T00:02:03;99262.29;;;20.29;65.93
58662;BME280;44432;49.786;22.760;2022-07-23T00:04:35;99262.13;;;20.26;66.19
58662;BME280;44432;49.786;22.760;2022-07-23T00:07:06;99256.52;;;20.22;66.34
58662;BME280;44432;49.786;22.760;2022-07-23T00:09:36;99260.16;;;20.23;66.52
58662;BME280;44432;49.786;22.760;2022-07-23T00:12:07;99258.09;;;20.20;66.49
58662;BME280;44432;49.786;22.760;2022-07-23T00:14:38;99263.66;;;20.20;66.59
58662;BME280;44432;49.786;22.760;2022-07-23T00:17:09;99266.73;;;20.18;66.71
58662;BME280;44432;49.786;22.760;2022-07-23T00:19:39;99261.16;;;20.15;66.68
58662;BME280;44432;49.786;22.760;2022-07-23T00:22:10;99264.61;;;20.12;66.84
58662;BME280;44432;49.786;22.760;2022-07-23T00:24:40;99262.52;;;20.10;66.91
58662;BME280;44432;49.786;22.760;2022-07-23T00:27:11;99265.23;;;20.07;67.16
58662;BME280;44432;49.786;22.760;2022-07-23T00:29:41;99263.90;;;20.03;67.16
58662;BME280;44432;49.786;22.760;2022-07-23T00:32:12;99272.43;;;20.00;67.18
58662;BME280;44432;49.786;22.760;2022-07-23T00:34:42;99272.19;;;19.94;67.29
58662;BME280;44432;49.786;22.760;2022-07-23T00:37:13;99267.54;;;19.91;67.50
58662;BME280;44432;49.786;22.760;2022-07-23T00:39:43;99268.61;;;19.89;67.64
58662;BME280;44432;49.786;22.760;2022-07-23T00:42:14;99270.88;;;19.86;67.72
58662;BME280;44432;49.786;22.760;2022-07-23T00:44:45;99270.55;;;19.84;67.82
58662;BME280;44432;49.786;22.760;2022-07-23T00:47:16;99274.16;;;19.82;67.93
58662;BME280;44432;49.786;22.760;2022-07-23T00:49:47;99275.77;;;19.79;67.94
58662;BME280;44432;49.786;22.760;2022-07-23T00:52:17;99275.98;;;19.75;68.00
58662;BME280;44432;49.786;22.760;2022-07-23T00:54:49;99276.89;;;19.73;68.24
58662;BME280;44432;49.786;22.760;2022-07-23T00:57:20;99274.64;;;19.72;68.37
58662;BME280;44432;49.786;22.760;2022-07-23T00:59:50;99271.81;;;19.68;68.52
58662;BME280;44432;49.786;22.760;2022-07-23T01:02:21;99272.63;;;19.65;68.65
58662;BME280;44432;49.786;22.760;2022-07-23T01:04:52;99276.86;;;19.62;68.74
58662;BME280;44432;49.786;22.760;2022-07-23T01:07:23;99278.16;;;19.58;68.82
58662;BME280;44432;49.786;22.760;2022-07-23T01:09:55;99277.63;;;19.54;68.84
58662;BME280;44432;49.786;22.760;2022-07-23T01:12:26;99278.95;;;19.50;68.94
58662;BME280;44432;49.786;22.760;2022-07-23T01:14:57;99272.73;;;19.47;68.98
58662;BME280;44432;49.786;22.760;2022-07-23T01:17:28;99270.50;;;19.43;69.17
58662;BME280;44432;49.786;22.760;2022-07-23T01:19:59;99270.98;;;19.43;69.21
58662;BME280;44432;49.786;22.760;2022-07-23T01:22:30;99269.70;;;19.40;69.39
58662;BME280;44432;49.786;22.760;2022-07-23T01:25:00;99267.66;;;19.38;69.43
58662;BME280;44432;49.786;22.760;2022-07-23T01:27:31;99271.42;;;19.36;69.56
58662;BME280;44432;49.786;22.760;2022-07-23T01:30:03;99269.06;;;19.32;69.59
58662;BME280;44432;49.786;22.760;2022-07-23T01:32:34;99264.95;;;19.29;69.79
58662;BME280;44432;49.786;22.760;2022-07-23T01:35:07;99265.86;;;19.25;69.82
58662;BME280;44432;49.786;22.760;2022-07-23T01:37:38;99265.55;;;19.22;70.05
58662;BME280;44432;49.786;22.760;2022-07-23T01:40:09;99262.17;;;19.16;70.21
58662;BME280;44432;49.786;22.760;2022-07-23T01:42:40;99269.19;;;19.13;70.22
58662;BME280;44432;49.786;22.760;2022-07-23T01:45:11;99263.99;;;19.10;70.38
58662;BME280;44432;49.786;22.760;2022-07-23T01:47:42;99261.85;;;19.08;70.49
58662;BME280;44432;49.786;22.760;2022-07-23T01:50:12;99263.19;;;19.07;70.62
58662;BME280;44432;49.786;22.760;2022-07-23T01:52:43;99264.05;;;19.04;70.59
58662;BME280;44432;49.786;22.760;2022-07-23T01:55:14;99267.69;;;19.02;70.70
58662;BME280;44432;49.786;22.760;2022-07-23T01:57:45;99266.88;;;18.98;70.82
58662;BME280;44432;49.786;22.760;2022-07-23T02:00:16;99261.05;;;18.95;70.92
58662;BME280;44432;49.786;22.760;2022-07-23T02:02:46;99257.20;;;18.94;71.05
58662;BME280;44432;49.786;22.760;2022-07-23T02:05:17;99253.67;;;18.93;71.07
58662;BME280;44432;49.786;22.760;2022-07-23T02:07:47;99250.52;;;18.91;71.23
58662;BME280;44432;49.786;22.760;2022-07-23T02:10:18;99248.80;;;18.89;71.28
58662;BME280;44432;49.786;22.760;2022-07-23T02:12:49;99250.56;;;18.87;71.32
58662;BME280;44432;49.786;22.760;2022-07-23T02:15:19;99252.48;;;18.84;71.37
58662;BME280;44432;49.786;22.760;2022-07-23T02:17:50;99252.38;;;18.80;71.45
58662;BME280;44432;49.786;22.760;2022-07-23T02:20:20;99254.57;;;18.78;71.72
58662;BME280;44432;49.786;22.760;2022-07-23T02:22:51;99254.25;;;18.77;71.73
58662;BME280;44432;49.786;22.760;2022-07-23T02:25:22;99259.16;;;18.74;71.65
58662;BME280;44432;49.786;22.760;2022-07-23T02:27:52;99262.55;;;18.72;71.71
58662;BME280;44432;49.786;22.760;2022-07-23T02:30:23;99259.99;;;18.70;71.77
58662;BME280;44432;49.786;22.760;2022-07-23T02:32:54;99261.65;;;18.71;71.84
58662;BME280;44432;49.786;22.760;2022-07-23T02:35:24;99256.25;;;18.70;71.84
58662;BME280;44432;49.786;22.760;2022-07-23T02:37:55;99257.10;;;18.71;71.78
58662;BME280;44432;49.786;22.760;2022-07-23T02:40:25;99250.90;;;18.69;71.81
58662;BME280;44432;49.786;22.760;2022-07-23T02:42:56;99258.02;;;18.69;71.83
58662;BME280;44432;49.786;22.760;2022-07-23T02:45:27;99262.66;;;18.65;71.80
58662;BME280;44432;49.786;22.760;2022-07-23T02:47:57;99262.71;;;18.64;71.89
58662;BME280;44432;49.786;22.760;2022-07-23T02:50:28;99262.17;;;18.63;71.91
58662;BME280;44432;49.786;22.760;2022-07-23T02:52:58;99262.66;;;18.62;71.93
58662;BME280;44432;49.786;22.760;2022-07-23T02:55:29;99264.64;;;18.62;72.03
58662;BME280;44432;49.786;22.760;2022-07-23T02:58:00;99263.67;;;18.63;72.06
58662;BME280;44432;49.786;22.760;2022-07-23T03:00:30;99261.41;;;18.62;72.17
58662;BME280;44432;49.786;22.760;2022-07-23T03:03:01;99262.92;;;18.65;72.16
58662;BME280;44432;49.786;22.760;2022-07-23T03:05:31;99263.52;;;18.64;72.10
58662;BME280;44432;49.786;22.760;2022-07-23T03:08:02;99262.66;;;18.63;72.02
58662;BME280;44432;49.786;22.760;2022-07-23T03:10:33;99263.67;;;18.62;72.12
58662;BME280;44432;49.786;22.760;2022-07-23T03:13:03;99268.48;;;18.63;72.16
58662;BME280;44432;49.786;22.760;2022-07-23T03:15:34;99266.83;;;18.63;72.27
58662;BME280;44432;49.786;22.760;2022-07-23T03:18:05;99269.98;;;18.64;72.26
58662;BME280;44432;49.786;22.760;2022-07-23T03:20:36;99271.01;;;18.65;72.19
58662;BME280;44432;49.786;22.760;2022-07-23T03:23:06;99271.11;;;18.67;72.07
58662;BME280;44432;49.786;22.760;2022-07-23T03:25:37;99272.02;;;18.68;71.94
58662;BME280;44432;49.786;22.760;2022-07-23T03:28:07;99271.33;;;18.69;71.88
58662;BME280;44432;49.786;22.760;2022-07-23T03:30:38;99281.02;;;18.70;71.83
58662;BME280;44432;49.786;22.760;2022-07-23T03:33:09;99278.13;;;18.72;71.70
58662;BME280;44432;49.786;22.760;2022-07-23T03:35:40;99280.47;;;18.73;71.65
58662;BME280;44432;49.786;22.760;2022-07-23T03:38:10;99277.73;;;18.75;71.69
58662;BME280;44432;49.786;22.760;2022-07-23T03:40:41;99282.11;;;18.79;71.68
58662;BME280;44432;49.786;22.760;2022-07-23T03:43:12;99276.14;;;18.84;71.64
58662;BME280;44432;49.786;22.760;2022-07-23T03:45:42;99272.61;;;18.89;71.49
58662;BME280;44432;49.786;22.760;2022-07-23T03:48:13;99273.63;;;18.93;71.38
58662;BME280;44432;49.786;22.760;2022-07-23T03:50:43;99270.52;;;18.98;71.29
58662;BME280;44432;49.786;22.760;2022-07-23T03:53:14;99274.22;;;19.02;71.20
58662;BME280;44432;49.786;22.760;2022-07-23T03:55:44;99274.05;;;19.07;71.17
58662;BME280;44432;49.786;22.760;2022-07-23T03:58:15;99278.08;;;19.12;71.07
58662;BME280;44432;49.786;22.760;2022-07-23T04:00:45;99274.38;;;19.13;70.94
58662;BME280;44432;49.786;22.760;2022-07-23T04:03:16;99278.44;;;19.22;70.85
58662;BME280;44432;49.786;22.760;2022-07-23T04:05:47;99278.98;;;19.29;70.75
58662;BME280;44432;49.786;22.760;2022-07-23T04:08:17;99284.42;;;19.36;70.58
58662;BME280;44432;49.786;22.760;2022-07-23T04:10:48;99282.86;;;19.41;70.47
58662;BME280;44432;49.786;22.760;2022-07-23T04:13:19;99286.34;;;19.47;70.36
58662;BME280;44432;49.786;22.760;2022-07-23T04:15:49;99287.91;;;19.56;70.30
58662;BME280;44432;49.786;22.760;2022-07-23T04:18:20;99291.38;;;19.66;70.11
58662;BME280;44432;49.786;22.760;2022-07-23T04:20:53;99288.62;;;19.74;69.88
58662;BME280;44432;49.786;22.760;2022-07-23T04:23:24;99286.91;;;19.81;69.76
58662;BME280;44432;49.786;22.760;2022-07-23T04:25:54;99288.22;;;19.92;69.84
58662;BME280;44432;49.786;22.760;2022-07-23T04:28:25;99292.89;;;20.04;69.64
58662;BME280;44432;49.786;22.760;2022-07-23T04:30:57;99289.00;;;20.12;69.37
58662;BME280;44432;49.786;22.760;2022-07-23T04:33:28;99283.34;;;20.18;69.29
58662;BME280;44432;49.786;22.760;2022-07-23T04:35:59;99284.21;;;20.28;69.09
58662;BME280;44432;49.786;22.760;2022-07-23T04:38:30;99285.41;;;20.35;68.88
58662;BME280;44432;49.786;22.760;2022-07-23T04:41:01;99284.44;;;20.42;68.78
58662;BME280;44432;49.786;22.760;2022-07-23T04:43:32;99280.81;;;20.47;68.53
58662;BME280;44432;49.786;22.760;2022-07-23T04:46:03;99274.95;;;20.52;68.54
58662;BME280;44432;49.786;22.760;2022-07-23T04:48:33;99279.61;;;20.61;68.38
58662;BME280;44432;49.786;22.760;2022-07-23T04:51:04;99276.51;;;20.68;68.25
58662;BME280;44432;49.786;22.760;2022-07-23T04:53:36;99280.06;;;20.75;68.15
58662;BME280;44432;49.786;22.760;2022-07-23T04:56:07;99277.73;;;20.81;67.90
58662;BME280;44432;49.786;22.760;2022-07-23T04:58:38;99277.24;;;20.89;67.81
58662;BME280;44432;49.786;22.760;2022-07-23T05:01:09;99277.60;;;20.99;67.83
58662;BME280;44432;49.786;22.760;2022-07-23T05:03:39;99274.77;;;21.09;67.70
58662;BME280;44432;49.786;22.760;2022-07-23T05:06:10;99273.30;;;21.19;67.61
58662;BME280;44432;49.786;22.760;2022-07-23T05:08:41;99269.42;;;21.30;67.16
58662;BME280;44432;49.786;22.760;2022-07-23T05:11:11;99273.95;;;21.40;67.04
58662;BME280;44432;49.786;22.760;2022-07-23T05:13:42;99273.75;;;21.49;66.67
58662;BME280;44432;49.786;22.760;2022-07-23T05:16:12;99272.10;;;21.58;66.46
58662;BME280;44432;49.786;22.760;2022-07-23T05:18:43;99279.36;;;21.68;66.16
58662;BME280;44432;49.786;22.760;2022-07-23T05:21:14;99275.85;;;21.79;66.32
58662;BME280;44432;49.786;22.760;2022-07-23T05:23:44;99269.23;;;21.91;66.20
58662;BME280;44432;49.786;22.760;2022-07-23T05:26:15;99269.59;;;22.04;65.93
58662;BME280;44432;49.786;22.760;2022-07-23T05:28:46;99268.90;;;22.17;65.45
58662;BME280;44432;49.786;22.760;2022-07-23T05:31:16;99270.61;;;22.29;65.17
58662;BME280;44432;49.786;22.760;2022-07-23T05:33:47;99276.00;;;22.42;64.70
58662;BME280;44432;49.786;22.760;2022-07-23T05:36:17;99279.75;;;22.54;64.60
58662;BME280;44432;49.786;22.760;2022-07-23T05:38:48;99276.16;;;22.67;64.40
58662;BME280;44432;49.786;22.760;2022-07-23T05:41:19;99274.02;;;22.79;64.08
58662;BME280;44432;49.786;22.760;2022-07-23T05:43:49;99272.96;;;22.94;63.78
58662;BME280;44432;49.786;22.760;2022-07-23T05:46:20;99277.38;;;23.07;63.39
58662;BME280;44432;49.786;22.760;2022-07-23T05:48:50;99273.06;;;23.21;62.86
58662;BME280;44432;49.786;22.760;2022-07-23T05:51:22;99272.17;;;23.34;62.40
58662;BME280;44432;49.786;22.760;2022-07-23T05:53:53;99269.85;;;23.47;61.94
58662;BME280;44432;49.786;22.760;2022-07-23T05:56:24;99269.20;;;23.61;61.45
58662;BME280;44432;49.786;22.760;2022-07-23T05:58:54;99270.94;;;23.74;61.15
58662;BME280;44432;49.786;22.760;2022-07-23T06:01:25;99273.45;;;23.89;60.66
58662;BME280;44432;49.786;22.760;2022-07-23T06:03:56;99272.02;;;24.02;60.11
58662;BME280;44432;49.786;22.760;2022-07-23T06:06:26;99271.09;;;24.16;59.39
58662;BME280;44432;49.786;22.760;2022-07-23T06:08:57;99277.05;;;24.31;58.88
58662;BME280;44432;49.786;22.760;2022-07-23T06:11:28;99279.30;;;24.47;58.16
58662;BME280;44432;49.786;22.760;2022-07-23T06:13:59;99276.29;;;24.61;57.61
58662;BME280;44432;49.786;22.760;2022-07-23T06:16:29;99273.32;;;24.75;57.15
58662;BME280;44432;49.786;22.760;2022-07-23T06:19:00;99267.45;;;24.89;56.64
58662;BME280;44432;49.786;22.760;2022-07-23T06:21:30;99270.89;;;25.02;56.55
58662;BME280;44432;49.786;22.760;2022-07-23T06:24:01;99272.02;;;25.16;55.87
58662;BME280;44432;49.786;22.760;2022-07-23T06:26:32;99271.29;;;25.26;54.71
58662;BME280;44432;49.786;22.760;2022-07-23T06:29:02;99276.27;;;25.36;54.46
58662;BME280;44432;49.786;22.760;2022-07-23T06:31:33;99275.86;;;25.45;53.77
58662;BME280;44432;49.786;22.760;2022-07-23T06:34:03;99271.29;;;25.55;53.13
58662;BME280;44432;49.786;22.760;2022-07-23T06:36:34;99274.02;;;25.62;52.90
58662;BME280;44432;49.786;22.760;2022-07-23T06:39:05;99269.70;;;25.70;52.79
58662;BME280;44432;49.786;22.760;2022-07-23T06:41:35;99266.73;;;25.82;52.73
58662;BME280;44432;49.786;22.760;2022-07-23T06:44:06;99267.21;;;25.91;52.06
58662;BME280;44432;49.786;22.760;2022-07-23T06:46:37;99265.80;;;26.01;52.27
58662;BME280;44432;49.786;22.760;2022-07-23T06:49:08;99269.54;;;26.11;52.20
58662;BME280;44432;49.786;22.760;2022-07-23T06:51:38;99262.16;;;26.21;51.63
58662;BME280;44432;49.786;22.760;2022-07-23T06:54:09;99260.32;;;26.31;51.02
58662;BME280;44432;49.786;22.760;2022-07-23T06:56:39;99259.10;;;26.39;50.56
58662;BME280;44432;49.786;22.760;2022-07-23T06:59:10;99257.39;;;26.46;50.60
58662;BME280;44432;49.786;22.760;2022-07-23T07:01:41;99258.35;;;26.55;50.35
58662;BME280;44432;49.786;22.760;2022-07-23T07:04:12;99260.11;;;26.65;49.84
58662;BME280;44432;49.786;22.760;2022-07-23T07:06:42;99255.77;;;26.70;49.42
58662;BME280;44432;49.786;22.760;2022-07-23T07:09:13;99255.35;;;26.78;49.38
58662;BME280;44432;49.786;22.760;2022-07-23T07:11:44;99254.52;;;26.89;49.38
58662;BME280;44432;49.786;22.760;2022-07-23T07:14:14;99248.30;;;27.00;49.26
58662;BME280;44432;49.786;22.760;2022-07-23T07:16:45;99246.18;;;27.13;48.96
58662;BME280;44432;49.786;22.760;2022-07-23T07:19:15;99245.58;;;27.26;48.97
58662;BME280;44432;49.786;22.760;2022-07-23T07:21:46;99245.98;;;27.38;48.50
58662;BME280;44432;49.786;22.760;2022-07-23T07:24:17;99246.63;;;27.48;48.35
58662;BME280;44432;49.786;22.760;2022-07-23T07:26:47;99247.35;;;27.56;48.10
58662;BME280;44432;49.786;22.760;2022-07-23T07:29:18;99244.66;;;27.64;48.02
58662;BME280;44432;49.786;22.760;2022-07-23T07:31:48;99242.68;;;27.74;47.97
58662;BME280;44432;49.786;22.760;2022-07-23T07:34:19;99245.41;;;27.84;47.92
58662;BME280;44432;49.786;22.760;2022-07-23T07:36:50;99247.83;;;27.90;47.60
58662;BME280;44432;49.786;22.760;2022-07-23T07:39:20;99247.59;;;27.92;47.54
58662;BME280;44432;49.786;22.760;2022-07-23T07:41:50;99249.33;;;27.97;47.51
58662;BME280;44432;49.786;22.760;2022-07-23T07:44:21;99247.61;;;28.02;47.58
58662;BME280;44432;49.786;22.760;2022-07-23T07:46:52;99242.41;;;28.07;47.58
58662;BME280;44432;49.786;22.760;2022-07-23T07:49:22;99245.48;;;28.16;47.53
58662;BME280;44432;49.786;22.760;2022-07-23T07:51:53;99243.02;;;28.24;47.55
58662;BME280;44432;49.786;22.760;2022-07-23T07:54:23;99240.80;;;28.31;47.53
58662;BME280;44432;49.786;22.760;2022-07-23T07:56:54;99243.23;;;28.40;47.45
58662;BME280;44432;49.786;22.760;2022-07-23T07:59:25;99246.01;;;28.48;47.41
58662;BME280;44432;49.786;22.760;2022-07-23T08:01:55;99248.42;;;28.57;47.34
58662;BME280;44432;49.786;22.760;2022-07-23T08:04:26;99249.17;;;28.67;47.41
58662;BME280;44432;49.786;22.760;2022-07-23T08:06:56;99247.89;;;28.76;47.20
58662;BME280;44432;49.786;22.760;2022-07-23T08:09:27;99249.40;;;28.85;47.01
58662;BME280;44432;49.786;22.760;2022-07-23T08:11:57;99250.95;;;28.93;46.72
58662;BME280;44432;49.786;22.760;2022-07-23T08:14:28;99252.65;;;29.02;46.46
58662;BME280;44432;49.786;22.760;2022-07-23T08:16:59;99249.64;;;29.12;46.20
58662;BME280;44432;49.786;22.760;2022-07-23T08:19:29;99248.96;;;29.22;46.21
58662;BME280;44432;49.786;22.760;2022-07-23T08:22:00;99246.98;;;29.33;46.10
58662;BME280;44432;49.786;22.760;2022-07-23T08:24:30;99250.47;;;29.43;46.07
58662;BME280;44432;49.786;22.760;2022-07-23T08:27:01;99248.84;;;29.52;45.80
58662;BME280;44432;49.786;22.760;2022-07-23T08:29:32;99248.55;;;29.63;45.69
58662;BME280;44432;49.786;22.760;2022-07-23T08:32:03;99248.84;;;29.74;45.77
58662;BME280;44432;49.786;22.760;2022-07-23T08:34:33;99245.38;;;29.85;45.52
58662;BME280;44432;49.786;22.760;2022-07-23T08:37:04;99239.86;;;29.95;45.13
58662;BME280;44432;49.786;22.760;2022-07-23T08:39:34;99240.41;;;30.07;45.13
58662;BME280;44432;49.786;22.760;2022-07-23T08:42:05;99237.17;;;30.19;44.82
58662;BME280;44432;49.786;22.760;2022-07-23T08:44:36;99231.54;;;30.29;44.46
58662;BME280;44432;49.786;22.760;2022-07-23T08:47:07;99232.25;;;30.37;44.45
58662;BME280;44432;49.786;22.760;2022-07-23T08:49:38;99235.04;;;30.47;43.94
58662;BME280;44432;49.786;22.760;2022-07-23T08:52:10;99237.19;;;30.54;43.65
58662;BME280;44432;49.786;22.760;2022-07-23T08:54:40;99233.98;;;30.64;43.62
58662;BME280;44432;49.786;22.760;2022-07-23T08:57:11;99228.90;;;30.74;43.49
58662;BME280;44432;49.786;22.760;2022-07-23T08:59:42;99227.45;;;30.83;43.31
58662;BME280;44432;49.786;22.760;2022-07-23T09:02:14;99224.29;;;30.93;42.79
58662;BME280;44432;49.786;22.760;2022-07-23T09:04:45;99226.39;;;31.06;42.70
58662;BME280;44432;49.786;22.760;2022-07-23T09:07:16;99220.43;;;31.15;42.52
58662;BME280;44432;49.786;22.760;2022-07-23T09:09:47;99218.39;;;31.25;42.24
58662;BME280;44432;49.786;22.760;2022-07-23T09:12:34;99216.58;;;31.36;41.96
58662;BME280;44432;49.786;22.760;2022-07-23T09:15:10;99212.09;;;31.47;41.78
58662;BME280;44432;49.786;22.760;2022-07-23T09:17:44;99209.86;;;31.55;41.33
58662;BME280;44432;49.786;22.760;2022-07-23T09:20:16;99205.50;;;31.65;41.23
58662;BME280;44432;49.786;22.760;2022-07-23T09:22:48;99208.45;;;31.76;41.11
58662;BME280;44432;49.786;22.760;2022-07-23T09:25:20;99208.63;;;31.87;40.77
58662;BME280;44432;49.786;22.760;2022-07-23T09:27:56;99204.33;;;31.94;40.11
58662;BME280;44432;49.786;22.760;2022-07-23T09:30:29;99205.30;;;31.96;39.45
58662;BME280;44432;49.786;22.760;2022-07-23T09:33:07;99202.66;;;31.93;38.85
58662;BME280;44432;49.786;22.760;2022-07-23T09:35:50;99196.48;;;31.96;38.85
58662;BME280;44432;49.786;22.760;2022-07-23T09:38:23;99196.55;;;31.99;38.65
58662;BME280;44432;49.786;22.760;2022-07-23T09:41:08;99196.58;;;32.07;38.29
58662;BME280;44432;49.786;22.760;2022-07-23T09:43:39;99197.88;;;32.06;37.87
58662;BME280;44432;49.786;22.760;2022-07-23T09:46:24;99193.60;;;32.06;37.54
58662;BME280;44432;49.786;22.760;2022-07-23T09:48:56;99188.66;;;32.02;37.18
58662;BME280;44432;49.786;22.760;2022-07-23T09:51:27;99186.86;;;32.02;37.17
58662;BME280;44432;49.786;22.760;2022-07-23T09:54:01;99182.36;;;32.03;37.04
58662;BME280;44432;49.786;22.760;2022-07-23T09:56:34;99182.91;;;31.99;36.82
58662;BME280;44432;49.786;22.760;2022-07-23T09:59:06;99179.91;;;32.05;36.78
58662;BME280;44432;49.786;22.760;2022-07-23T10:01:37;99175.29;;;32.11;36.62
58662;BME280;44432;49.786;22.760;2022-07-23T10:04:08;99173.42;;;32.19;36.42
58662;BME280;44432;49.786;22.760;2022-07-23T10:06:42;99169.93;;;32.28;36.19
58662;BME280;44432;49.786;22.760;2022-07-23T10:09:17;99168.88;;;32.38;36.03
58662;BME280;44432;49.786;22.760;2022-07-23T10:11:53;99165.02;;;32.48;36.13
58662;BME280;44432;49.786;22.760;2022-07-23T10:14:27;99165.35;;;32.61;35.86
58662;BME280;44432;49.786;22.760;2022-07-23T10:17:02;99163.84;;;32.71;35.69
58662;BME280;44432;49.786;22.760;2022-07-23T10:19:31;99161.52;;;32.85;35.54
58662;BME280;44432;49.786;22.760;2022-07-23T10:22:06;99157.50;;;33.00;35.59
58662;BME280;44432;49.786;22.760;2022-07-23T10:24:49;99150.75;;;33.17;35.05
58662;BME280;44432;49.786;22.760;2022-07-23T10:27:39;99156.30;;;33.37;35.00
58662;BME280;44432;49.786;22.760;2022-07-23T10:30:20;99158.78;;;33.61;34.45
58662;BME280;44432;49.786;22.760;2022-07-23T10:33:01;99153.66;;;33.80;34.39
58662;BME280;44432;49.786;22.760;2022-07-23T10:35:47;99156.80;;;33.97;33.82
58662;BME280;44432;49.786;22.760;2022-07-23T10:38:24;99153.86;;;34.11;33.67
58662;BME280;44432;49.786;22.760;2022-07-23T10:40:57;99147.44;;;34.24;33.41
58662;BME280;44432;49.786;22.760;2022-07-23T10:43:28;99147.02;;;34.28;32.66
58662;BME280;44432;49.786;22.760;2022-07-23T10:46:22;99149.56;;;34.31;32.56
58662;BME280;44432;49.786;22.760;2022-07-23T10:49:24;99143.14;;;34.39;32.44
58662;BME280;44432;49.786;22.760;2022-07-23T10:52:17;99144.23;;;34.46;32.13
58662;BME280;44432;49.786;22.760;2022-07-23T10:54:49;99142.04;;;34.52;32.19
58662;BME280;44432;49.786;22.760;2022-07-23T10:57:23;99141.79;;;34.59;31.91
58662;BME280;44432;49.786;22.760;2022-07-23T11:00:26;99144.99;;;34.66;31.25
58662;BME280;44432;49.786;22.760;2022-07-23T11:03:00;99149.16;;;34.75;30.97
58662;BME280;44432;49.786;22.760;2022-07-23T11:05:42;99144.41;;;34.78;31.04
58662;BME280;44432;49.786;22.760;2022-07-23T11:08:16;99143.38;;;34.67;30.99
58662;BME280;44432;49.786;22.760;2022-07-23T11:10:52;99140.53;;;34.50;30.93
58662;BME280;44432;49.786;22.760;2022-07-23T11:13:41;99140.31;;;34.31;31.14
58662;BME280;44432;49.786;22.760;2022-07-23T11:16:28;99135.77;;;34.17;31.13
58662;BME280;44432;49.786;22.760;2022-07-23T11:19:06;99133.16;;;34.10;31.40
58662;BME280;44432;49.786;22.760;2022-07-23T11:21:45;99136.66;;;34.01;30.96
58662;BME280;44432;49.786;22.760;2022-07-23T11:24:18;99131.13;;;33.90;30.91
58662;BME280;44432;49.786;22.760;2022-07-23T11:26:54;99127.98;;;33.89;30.75
58662;BME280;44432;49.786;22.760;2022-07-23T11:29:45;99126.40;;;33.94;30.56
58662;BME280;44432;49.786;22.760;2022-07-23T11:32:34;99127.69;;;34.03;30.97
58662;BME280;44432;49.786;22.760;2022-07-23T11:35:27;99124.35;;;34.18;30.75
58662;BME280;44432;49.786;22.760;2022-07-23T11:38:11;99125.31;;;34.33;30.71
58662;BME280;44432;49.786;22.760;2022-07-23T11:40:45;99119.64;;;34.45;30.61
58662;BME280;44432;49.786;22.760;2022-07-23T11:43:21;99117.80;;;34.57;30.14
58662;BME280;44432;49.786;22.760;2022-07-23T11:45:54;99119.70;;;34.66;29.76
58662;BME280;44432;49.786;22.760;2022-07-23T11:48:28;99115.13;;;34.73;29.78
58662;BME280;44432;49.786;22.760;2022-07-23T11:51:00;99115.02;;;34.76;29.99
58662;BME280;44432;49.786;22.760;2022-07-23T11:53:32;99119.40;;;34.83;30.21
58662;BME280;44432;49.786;22.760;2022-07-23T11:56:08;99118.48;;;34.94;30.06
58662;BME280;44432;49.786;22.760;2022-07-23T11:58:40;99112.79;;;35.06;29.99
58662;BME280;44432;49.786;22.760;2022-07-23T12:01:24;99108.36;;;35.11;29.81
58662;BME280;44432;49.786;22.760;2022-07-23T12:03:54;99109.73;;;35.17;29.26
58662;BME280;44432;49.786;22.760;2022-07-23T12:06:25;99108.38;;;35.13;29.31
58662;BME280;44432;49.786;22.760;2022-07-23T12:08:56;99111.15;;;35.16;29.44
58662;BME280;44432;49.786;22.760;2022-07-23T12:11:27;99100.23;;;35.16;29.32
58662;BME280;44432;49.786;22.760;2022-07-23T12:13:59;99096.25;;;35.17;29.51
58662;BME280;44432;49.786;22.760;2022-07-23T12:16:30;99098.21;;;35.16;29.10
58662;BME280;44432;49.786;22.760;2022-07-23T12:19:00;99093.42;;;35.17;29.41
58662;BME280;44432;49.786;22.760;2022-07-23T12:21:31;99094.65;;;35.22;29.10
58662;BME280;44432;49.786;22.760;2022-07-23T12:24:08;99092.12;;;35.30;29.28
58662;BME280;44432;49.786;22.760;2022-07-23T12:26:39;99091.53;;;35.37;28.92
58662;BME280;44432;49.786;22.760;2022-07-23T12:29:10;99091.46;;;35.39;28.66
58662;BME280;44432;49.786;22.760;2022-07-23T12:31:41;99084.71;;;35.34;28.65
58662;BME280;44432;49.786;22.760;2022-07-23T12:34:16;99079.77;;;35.33;28.67
58662;BME280;44432;49.786;22.760;2022-07-23T12:36:48;99078.73;;;35.32;28.78
58662;BME280;44432;49.786;22.760;2022-07-23T12:39:31;99073.97;;;35.34;28.96
58662;BME280;44432;49.786;22.760;2022-07-23T12:42:02;99072.50;;;35.43;28.71
58662;BME280;44432;49.786;22.760;2022-07-23T12:44:33;99066.34;;;35.49;28.56
58662;BME280;44432;49.786;22.760;2022-07-23T12:47:07;99065.79;;;35.49;27.93
58662;BME280;44432;49.786;22.760;2022-07-23T12:49:37;99057.95;;;35.48;28.14
58662;BME280;44432;49.786;22.760;2022-07-23T12:52:18;99051.29;;;35.51;28.29
58662;BME280;44432;49.786;22.760;2022-07-23T12:54:48;99049.66;;;35.57;27.99
58662;BME280;44432;49.786;22.760;2022-07-23T12:57:19;99049.38;;;35.61;27.99
58662;BME280;44432;49.786;22.760;2022-07-23T13:00:12;99049.88;;;35.68;28.08
58662;BME280;44432;49.786;22.760;2022-07-23T13:02:47;99047.14;;;35.70;27.85
58662;BME280;44432;49.786;22.760;2022-07-23T13:05:18;99047.63;;;35.73;27.82
58662;BME280;44432;49.786;22.760;2022-07-23T13:07:48;99045.32;;;35.67;27.37
58662;BME280;44432;49.786;22.760;2022-07-23T13:10:19;99036.22;;;35.49;27.39
58662;BME280;44432;49.786;22.760;2022-07-23T13:12:50;99033.17;;;35.31;27.79
58662;BME280;44432;49.786;22.760;2022-07-23T13:15:20;99033.17;;;35.32;28.36
58662;BME280;44432;49.786;22.760;2022-07-23T13:17:51;99030.84;;;35.33;28.30